OTTER BROOK LAKE : From 08/05/2019 17:00 to 08/20/2019 00:00

Date STAGE [FT] FLOW [CFS] LAKE ELEVATION [FT] PRECIPITATION INCREMENT [IN] AIR TEMPERATURE [DEGF]
08/19/2019 14:00 -- -- -- 0.00 --
08/19/2019 13:00 6.29 -- 19.59 0.00 82.6
08/19/2019 12:00 6.29 -- 19.59 0.00 86.4
08/19/2019 11:00 6.29 -- 19.60 0.00 86.2
08/19/2019 10:00 6.29 -- 19.60 0.00 83.9
08/19/2019 09:00 6.29 37.6 19.59 0.00 86.1
08/19/2019 08:00 6.29 37.6 19.59 0.00 83.0
08/19/2019 07:00 6.28 36.8 19.58 0.00 80.4
08/19/2019 06:00 6.28 36.8 19.58 0.00 77.3
08/19/2019 05:00 6.27 35.9 19.56 0.00 73.4
08/19/2019 04:00 6.25 34.2 19.54 0.00 68.0
08/19/2019 03:00 6.24 33.3 19.52 0.00 66.0
08/19/2019 02:00 6.23 32.5 19.50 0.00 65.9
08/19/2019 01:00 6.21 30.9 19.47 0.00 66.8
08/19/2019 00:00 6.19 29.3 19.44 0.00 67.1
08/18/2019 23:00 6.17 27.7 19.40 0.00 67.6
08/18/2019 22:00 6.14 25.4 19.37 0.00 68.1
08/18/2019 21:00 6.12 24.0 19.34 0.01 68.6
08/18/2019 20:00 6.10 22.6 19.32 0.03 69.1
08/18/2019 19:00 6.09 21.9 19.31 0.26 69.8
08/18/2019 18:00 6.07 20.6 19.27 0.00 73.9
08/18/2019 17:00 6.07 20.6 19.27 0.00 74.2
08/18/2019 16:00 6.08 21.3 19.28 0.00 75.5
08/18/2019 15:00 6.08 21.3 19.28 0.00 78.2
08/18/2019 14:00 6.08 21.3 19.28 0.00 80.9
08/18/2019 13:00 6.08 21.3 19.28 0.00 82.5
08/18/2019 12:00 6.08 21.3 19.28 0.00 86.4
08/18/2019 11:00 6.08 21.3 19.28 0.00 84.1
08/18/2019 10:00 6.08 21.3 19.28 0.00 84.6
08/18/2019 09:00 6.08 21.3 19.28 0.00 82.7
08/18/2019 08:00 6.07 20.6 19.27 0.00 78.6
08/18/2019 07:00 6.07 20.6 19.27 0.00 75.6
08/18/2019 06:00 6.06 19.9 19.26 0.00 70.0
08/18/2019 05:00 6.05 19.3 19.25 0.00 67.8
08/18/2019 04:00 6.04 18.7 19.23 0.00 66.9
08/18/2019 03:00 6.03 18.1 19.22 0.00 66.0
08/18/2019 02:00 6.02 17.5 19.21 0.00 65.9
08/18/2019 01:00 6.01 16.9 19.19 0.00 65.9
08/18/2019 00:00 5.99 15.8 19.17 0.00 66.1
08/17/2019 23:00 5.97 14.7 19.15 0.00 66.4
08/17/2019 22:00 5.95 13.7 19.13 0.00 66.2
08/17/2019 21:00 5.93 12.7 19.10 0.00 66.2
08/17/2019 20:00 5.91 11.8 19.07 0.00 66.8
08/17/2019 19:00 5.90 11.3 19.06 0.00 67.7
08/17/2019 18:00 5.89 10.9 19.04 0.00 67.9
08/17/2019 17:00 5.88 10.4 19.02 1.15 67.8
08/17/2019 16:00 5.79 7.0 18.95 0.12 74.3
08/17/2019 15:00 5.79 7.0 18.93 0.00 76.8
08/17/2019 14:00 5.79 7.0 18.93 0.00 81.9
08/17/2019 13:00 5.79 7.0 18.93 0.00 83.1
08/17/2019 12:00 5.79 7.0 18.93 0.00 83.9
08/17/2019 11:00 5.79 7.0 18.93 0.00 83.5
08/17/2019 10:00 5.79 7.0 18.94 0.00 83.2
08/17/2019 09:00 5.79 7.0 18.93 0.00 80.4
08/17/2019 08:00 5.79 7.0 18.94 0.00 77.8
08/17/2019 07:00 5.79 7.0 18.94 0.00 75.6
08/17/2019 06:00 5.80 7.3 18.94 0.00 73.4
08/17/2019 05:00 5.79 7.0 18.94 0.00 70.3
08/17/2019 04:00 5.79 7.0 18.94 0.00 68.9
08/17/2019 03:00 5.80 7.3 18.95 0.00 68.8
08/17/2019 02:00 5.80 7.3 18.95 0.00 68.8
08/17/2019 01:00 5.80 7.3 18.95 0.00 68.7
08/17/2019 00:00 5.80 7.3 18.95 0.00 68.4
08/16/2019 23:00 5.80 7.3 18.95 0.00 68.3
08/16/2019 22:00 5.80 7.3 18.95 0.00 67.1
08/16/2019 21:00 5.80 7.3 18.95 0.00 66.3
08/16/2019 20:00 5.80 7.3 18.95 0.00 66.8
08/16/2019 19:00 5.80 7.3 18.95 0.00 68.3
08/16/2019 18:00 5.80 7.3 18.95 0.00 69.0
08/16/2019 17:00 5.80 7.3 18.95 0.00 70.3
08/16/2019 16:00 5.80 7.3 18.95 0.00 71.8
08/16/2019 15:00 5.80 7.3 18.95 0.00 73.8
08/16/2019 14:00 5.80 7.3 18.95 0.00 76.0
08/16/2019 13:00 5.80 7.3 18.95 0.00 78.1
08/16/2019 12:00 5.80 7.3 18.95 0.00 80.1
08/16/2019 11:00 5.80 7.3 18.95 0.00 79.8
08/16/2019 10:00 5.80 7.3 18.95 0.00 82.1
08/16/2019 09:00 5.80 7.3 18.95 0.00 79.5
08/16/2019 08:00 5.79 7.0 18.95 0.00 76.6
08/16/2019 07:00 5.80 7.3 18.95 0.00 77.1
08/16/2019 06:00 5.80 7.3 18.95 0.00 74.5
08/16/2019 05:00 5.79 7.0 18.95 0.00 70.5
08/16/2019 04:00 5.79 7.0 18.95 0.00 66.1
08/16/2019 03:00 5.79 7.0 18.95 0.00 64.3
08/16/2019 02:00 5.80 7.3 18.94 0.00 63.5
08/16/2019 01:00 5.79 7.0 18.94 0.00 64.9
08/16/2019 00:00 5.79 7.0 18.94 0.01 65.5
08/15/2019 23:00 5.79 7.0 18.93 0.01 65.8
08/15/2019 22:00 5.78 6.7 18.93 0.00 65.7
08/15/2019 21:00 5.78 6.7 18.92 0.00 65.7
08/15/2019 20:00 5.78 6.7 18.92 0.00 65.9
08/15/2019 19:00 5.77 6.4 18.92 0.00 66.5
08/15/2019 18:00 5.77 6.4 18.91 0.06 67.2
08/15/2019 17:00 5.77 6.4 18.90 0.04 67.6
08/15/2019 16:00 5.76 6.1 18.89 0.21 69.7
08/15/2019 15:00 5.74 5.5 18.89 0.00 72.9
08/15/2019 14:00 5.73 5.3 18.87 0.00 77.2
08/15/2019 13:00 5.74 5.5 18.87 0.00 78.8
08/15/2019 12:00 5.73 5.3 18.87 0.00 82.6
08/15/2019 11:00 5.74 5.5 18.87 0.00 82.6
08/15/2019 10:00 5.74 5.5 18.87 0.00 80.1
08/15/2019 09:00 5.74 5.5 18.87 0.00 81.0
08/15/2019 08:00 5.74 5.5 18.88 0.00 77.9
08/15/2019 07:00 5.74 5.5 18.88 0.00 76.6
08/15/2019 06:00 5.75 5.8 18.88 0.00 75.0
08/15/2019 05:00 5.75 5.8 18.89 0.00 69.9
08/15/2019 04:00 5.75 5.8 18.89 0.00 61.0
08/15/2019 03:00 5.75 5.8 18.89 0.00 57.6
08/15/2019 02:00 5.75 5.8 18.89 0.00 56.9
08/15/2019 01:00 5.75 5.8 18.89 0.00 58.1
08/15/2019 00:00 5.76 6.1 18.90 0.00 59.0
08/14/2019 23:00 5.76 6.1 18.90 0.00 60.1
08/14/2019 22:00 5.76 6.1 18.90 0.00 60.9
08/14/2019 21:00 5.76 6.1 18.90 0.00 61.8
08/14/2019 20:00 5.76 6.1 18.90 0.00 63.2
08/14/2019 19:00 5.76 6.1 18.90 0.00 64.2
08/14/2019 18:00 5.76 6.1 18.90 0.00 65.6
08/14/2019 17:00 5.76 6.1 18.90 0.00 67.1
08/14/2019 16:00 5.76 6.1 18.90 0.00 68.2
08/14/2019 15:00 5.76 6.1 18.90 0.00 72.9
08/14/2019 14:00 5.76 6.1 18.90 0.00 76.3
08/14/2019 13:00 5.76 6.1 18.90 0.00 82.7
08/14/2019 12:00 5.76 6.1 18.91 0.00 82.6
08/14/2019 11:00 5.76 6.1 18.91 0.00 82.4
08/14/2019 10:00 5.77 6.4 18.91 0.00 80.8
08/14/2019 09:00 5.77 6.4 18.91 0.00 80.6
08/14/2019 08:00 5.77 6.4 18.92 0.00 79.5
08/14/2019 07:00 5.77 6.4 18.92 0.00 74.8
08/14/2019 06:00 5.77 6.4 18.92 0.00 70.6
08/14/2019 05:00 5.77 6.4 18.92 0.00 72.1
08/14/2019 04:00 5.77 6.4 18.92 0.00 66.4
08/14/2019 03:00 5.77 6.4 18.92 0.00 62.0
08/14/2019 02:00 5.77 6.4 18.92 0.00 60.8
08/14/2019 01:00 5.78 6.7 18.93 0.00 61.8
08/14/2019 00:00 5.78 6.7 18.93 0.00 63.1
08/13/2019 23:00 5.78 6.7 18.93 0.00 64.2
08/13/2019 22:00 5.78 6.7 18.93 0.00 65.3
08/13/2019 21:00 5.78 6.7 18.93 0.00 66.5
08/13/2019 20:00 5.78 6.7 18.93 0.00 67.6
08/13/2019 19:00 5.78 6.7 18.93 0.00 69.0
08/13/2019 18:00 5.78 6.7 18.93 0.00 70.0
08/13/2019 17:00 5.78 6.7 18.93 0.00 70.5
08/13/2019 16:00 5.78 6.7 18.93 0.00 73.0
08/13/2019 15:00 5.78 6.7 18.93 0.00 75.6
08/13/2019 14:00 5.78 6.7 18.93 0.00 78.6
08/13/2019 13:00 5.78 6.7 18.94 0.00 80.1
08/13/2019 12:00 5.78 6.7 18.93 0.00 78.7
08/13/2019 11:00 5.78 6.7 18.94 0.00 76.5
08/13/2019 10:00 5.78 6.7 18.94 0.00 74.3
08/13/2019 09:00 5.79 7.0 18.94 0.00 72.0
08/13/2019 08:00 5.79 7.0 18.94 0.00 71.9
08/13/2019 07:00 5.79 7.0 18.94 0.00 73.7
08/13/2019 06:00 5.79 7.0 18.95 0.00 73.3
08/13/2019 05:00 5.79 7.0 18.95 0.00 70.1
08/13/2019 04:00 5.79 7.0 18.95 0.00 67.3
08/13/2019 03:00 5.79 7.0 18.95 0.00 65.4
08/13/2019 02:00 5.80 7.3 18.95 0.00 65.8
08/13/2019 01:00 5.80 7.3 18.95 0.00 66.6
08/13/2019 00:00 5.80 7.3 18.96 0.00 66.2
08/12/2019 23:00 5.80 7.3 18.96 0.05 66.1
08/12/2019 22:00 5.80 7.3 18.96 0.00 66.4
08/12/2019 21:00 5.80 7.3 18.96 0.00 67.0
08/12/2019 20:00 5.80 7.3 18.96 0.00 67.2
08/12/2019 19:00 5.80 7.3 18.96 0.00 66.9
08/12/2019 18:00 5.81 7.7 18.96 0.00 67.3
08/12/2019 17:00 5.81 7.7 18.96 0.00 68.0
08/12/2019 16:00 5.81 7.7 18.96 0.00 71.3
08/12/2019 15:00 5.81 7.7 18.96 0.00 74.8
08/12/2019 14:00 5.81 7.7 18.97 0.00 78.0
08/12/2019 13:00 5.81 7.7 18.97 0.00 83.9
08/12/2019 12:00 5.81 7.7 18.97 0.00 83.6
08/12/2019 11:00 5.81 7.7 18.97 0.00 83.4
08/12/2019 10:00 5.82 8.1 18.98 0.00 82.7
08/12/2019 09:00 5.82 8.1 18.98 0.00 80.3
08/12/2019 08:00 5.82 8.1 18.99 0.00 80.4
08/12/2019 07:00 5.82 8.1 18.99 0.00 77.4
08/12/2019 06:00 5.83 8.4 18.99 0.00 71.9
08/12/2019 05:00 5.83 8.4 19.00 0.00 66.8
08/12/2019 04:00 5.83 8.4 19.00 0.00 57.8
08/12/2019 03:00 5.83 8.4 19.00 0.00 53.9
08/12/2019 02:00 5.84 8.8 19.00 0.00 53.9
08/12/2019 01:00 5.84 8.8 19.01 0.00 54.6
08/12/2019 00:00 5.84 8.8 19.01 0.00 54.8
08/11/2019 23:00 5.84 8.8 19.01 0.00 55.9
08/11/2019 22:00 5.85 9.2 19.01 0.00 57.2
08/11/2019 21:00 5.85 9.2 19.01 0.00 58.1
08/11/2019 20:00 5.85 9.2 19.01 0.00 59.3
08/11/2019 19:00 5.86 9.6 19.02 0.00 60.5
08/11/2019 18:00 5.86 9.6 19.02 0.00 61.5
08/11/2019 17:00 5.86 9.6 19.02 0.00 63.3
08/11/2019 16:00 5.86 9.6 19.02 0.00 66.8
08/11/2019 15:00 5.86 9.6 19.02 0.00 73.4
08/11/2019 14:00 5.87 10.0 19.02 0.00 75.6
08/11/2019 13:00 5.87 10.0 19.03 0.00 78.5
08/11/2019 12:00 5.87 10.0 19.03 0.00 77.4
08/11/2019 11:00 5.87 10.0 19.03 0.00 76.9
08/11/2019 10:00 5.88 10.4 19.04 0.00 75.8
08/11/2019 09:00 5.88 10.4 19.04 0.00 74.5
08/11/2019 08:00 5.88 10.4 19.06 0.00 75.2
08/11/2019 07:00 5.88 10.4 19.06 0.00 72.2
08/11/2019 06:00 5.89 10.9 19.06 0.00 68.6
08/11/2019 05:00 5.89 10.9 19.07 0.00 63.7
08/11/2019 04:00 5.89 10.9 19.07 0.00 54.1
08/11/2019 03:00 5.89 10.9 19.07 0.00 49.1
08/11/2019 02:00 5.90 11.3 19.07 0.00 49.0
08/11/2019 01:00 5.90 11.3 19.08 0.00 49.6
08/11/2019 00:00 5.90 11.3 19.08 0.00 50.6
08/10/2019 23:00 5.90 11.3 19.08 0.00 51.6
08/10/2019 22:00 5.91 11.8 19.09 0.00 52.0
08/10/2019 21:00 5.91 11.8 19.09 0.00 52.6
08/10/2019 20:00 5.91 11.8 19.09 0.00 54.5
08/10/2019 19:00 5.92 12.2 19.09 0.00 55.4
08/10/2019 18:00 5.92 12.2 19.10 0.00 55.9
08/10/2019 17:00 5.92 12.2 19.10 0.01 58.6
08/10/2019 16:00 5.92 12.2 19.09 0.00 63.1
08/10/2019 15:00 5.93 12.7 19.10 0.00 68.3
08/10/2019 14:00 5.93 12.7 19.11 0.00 71.1
08/10/2019 13:00 5.93 12.7 19.11 0.00 73.0
08/10/2019 12:00 5.93 12.7 19.11 0.00 69.7
08/10/2019 11:00 5.94 13.2 19.13 0.01 63.4
08/10/2019 10:00 5.94 13.2 19.12 0.00 70.7
08/10/2019 09:00 5.94 13.2 19.11 0.00 75.4
08/10/2019 08:00 5.94 13.2 19.12 0.00 74.6
08/10/2019 07:00 5.95 13.7 19.14 0.00 74.6
08/10/2019 06:00 5.95 13.7 19.14 0.00 71.6
08/10/2019 05:00 5.96 14.2 19.14 0.00 68.4
08/10/2019 04:00 5.96 14.2 19.14 0.00 59.7
08/10/2019 03:00 5.96 14.2 19.15 0.00 54.7
08/10/2019 02:00 5.97 14.7 19.15 0.00 55.3
08/10/2019 01:00 5.97 14.7 19.15 0.00 56.0
08/10/2019 00:00 5.97 14.7 19.16 0.00 56.1
08/09/2019 23:00 5.97 14.7 19.16 0.00 57.1
08/09/2019 22:00 5.97 14.7 19.17 0.00 57.6
08/09/2019 21:00 5.98 15.3 19.17 0.00 57.2
08/09/2019 20:00 5.98 15.3 19.17 0.00 57.5
08/09/2019 19:00 5.98 15.3 19.17 0.00 58.9
08/09/2019 18:00 5.99 15.8 19.17 0.00 60.9
08/09/2019 17:00 5.99 15.8 19.18 0.00 63.4
08/09/2019 16:00 5.99 15.8 19.18 0.00 67.0
08/09/2019 15:00 5.99 15.8 19.18 0.00 73.5
08/09/2019 14:00 5.99 15.8 19.19 0.00 76.7
08/09/2019 13:00 6.00 16.4 19.20 0.00 80.2
08/09/2019 12:00 6.00 16.4 19.19 0.00 81.0
08/09/2019 11:00 6.00 16.4 19.20 0.00 81.4
08/09/2019 10:00 6.00 16.4 19.20 0.00 80.1
08/09/2019 09:00 6.01 16.9 19.21 0.00 80.0
08/09/2019 08:00 6.01 16.9 19.22 0.00 78.2
08/09/2019 07:00 6.02 17.5 19.21 0.00 75.2
08/09/2019 06:00 6.02 17.5 19.22 0.00 72.9
08/09/2019 05:00 6.02 17.5 19.22 0.00 69.6
08/09/2019 04:00 6.02 17.5 19.23 0.00 62.7
08/09/2019 03:00 6.02 17.5 19.23 0.00 60.6
08/09/2019 02:00 6.03 18.1 19.23 0.00 59.8
08/09/2019 01:00 6.03 18.1 19.23 0.00 60.4
08/09/2019 00:00 6.03 18.1 19.23 0.00 60.7
08/08/2019 23:00 6.03 18.1 19.23 0.00 60.5
08/08/2019 22:00 6.03 18.1 19.23 0.00 61.2
08/08/2019 21:00 6.03 18.1 19.23 0.01 62.1
08/08/2019 20:00 6.03 18.1 19.23 0.00 62.8
08/08/2019 19:00 6.03 18.1 19.23 0.00 63.4
08/08/2019 18:00 6.03 18.1 19.23 0.00 64.5
08/08/2019 17:00 6.03 18.1 19.23 0.00 65.5
08/08/2019 16:00 6.03 18.1 19.22 0.05 66.4
08/08/2019 15:00 6.01 16.9 19.20 0.18 68.3
08/08/2019 14:00 6.01 16.9 19.20 0.00 74.9
08/08/2019 13:00 6.00 16.4 19.20 0.00 76.5
08/08/2019 12:00 6.00 16.4 19.19 0.00 82.1
08/08/2019 11:00 6.00 16.4 19.19 0.00 84.4
08/08/2019 10:00 5.99 15.8 19.17 0.00 82.0
08/08/2019 09:00 5.98 15.3 19.17 0.00 79.7
08/08/2019 08:00 5.98 15.3 19.17 0.00 76.1
08/08/2019 07:00 5.97 14.7 19.16 0.00 73.9
08/08/2019 06:00 5.96 14.2 19.15 0.01 71.4
08/08/2019 05:00 5.95 13.7 19.14 0.03 70.0
08/08/2019 04:00 5.93 12.7 19.11 0.00 69.7
08/08/2019 03:00 5.92 12.2 19.10 0.00 68.4
08/08/2019 02:00 5.91 11.8 19.08 0.00 67.9
08/08/2019 01:00 5.89 10.9 19.06 0.00 67.9
08/08/2019 00:00 5.87 10.0 19.03 0.01 68.0
08/07/2019 23:00 5.85 9.2 19.01 0.00 68.3
08/07/2019 22:00 5.82 8.1 18.98 0.01 68.3
08/07/2019 21:00 5.80 7.3 18.96 0.00 67.8
08/07/2019 20:00 5.79 7.0 18.94 0.02 68.4
08/07/2019 19:00 5.78 6.7 18.93 0.12 68.9
08/07/2019 18:00 5.77 6.4 18.91 0.00 69.3
08/07/2019 17:00 5.76 6.1 18.91 0.04 69.6
08/07/2019 16:00 5.76 6.1 18.90 0.25 70.9
08/07/2019 15:00 5.75 5.8 18.88 0.00 73.3
08/07/2019 14:00 5.74 5.5 18.88 0.00 73.8
08/07/2019 13:00 5.74 5.5 18.88 0.02 72.9
08/07/2019 12:00 5.74 5.5 18.88 0.36 69.8
08/07/2019 11:00 5.72 5.0 18.85 0.00 84.3
08/07/2019 10:00 5.72 5.0 18.85 0.00 85.0
08/07/2019 09:00 5.72 5.0 18.85 0.00 81.8
08/07/2019 08:00 5.72 5.0 18.85 0.00 77.4
08/07/2019 07:00 5.72 5.0 18.86 0.00 75.4
08/07/2019 06:00 5.72 5.0 18.86 0.00 74.7
08/07/2019 05:00 5.72 5.0 18.86 0.00 71.5
08/07/2019 04:00 5.72 5.0 18.86 0.00 69.9
08/07/2019 03:00 5.73 5.3 18.86 0.00 68.4
08/07/2019 02:00 5.73 5.3 18.86 0.00 66.3
08/07/2019 01:00 5.73 5.3 18.86 0.00 66.8
08/07/2019 00:00 5.73 5.3 18.87 0.00 66.4
08/06/2019 23:00 5.73 5.3 18.87 0.00 66.3
08/06/2019 22:00 5.74 5.5 18.87 0.00 67.6
08/06/2019 21:00 5.74 5.5 18.87 0.00 68.5
08/06/2019 20:00 5.74 5.5 18.87 0.00 67.8
08/06/2019 19:00 5.74 5.5 18.87 0.00 67.4
08/06/2019 18:00 5.74 5.5 18.87 0.00 68.1
08/06/2019 17:00 5.74 5.5 18.87 0.00 69.7
08/06/2019 16:00 5.74 5.5 18.87 0.00 73.2
08/06/2019 15:00 5.74 5.5 18.87 0.00 77.7
08/06/2019 14:00 5.74 5.5 18.87 0.00 78.2
08/06/2019 13:00 5.73 5.3 18.88 0.00 80.2
08/06/2019 12:00 5.74 5.5 18.87 0.00 83.3
08/06/2019 11:00 5.74 5.5 18.88 0.00 84.7
08/06/2019 10:00 5.74 5.5 18.88 0.00 85.8
08/06/2019 09:00 5.74 5.5 18.88 0.00 84.0
08/06/2019 08:00 5.74 5.5 18.88 0.00 82.8
08/06/2019 07:00 5.75 5.8 18.89 0.00 79.8
08/06/2019 06:00 5.75 5.8 18.89 0.00 74.9
08/06/2019 05:00 5.75 5.8 18.89 0.00 70.0
08/06/2019 04:00 5.75 5.8 18.90 0.00 60.4
08/06/2019 03:00 5.75 5.8 18.90 0.00 54.7
08/06/2019 02:00 5.75 5.8 18.90 0.00 54.5
08/06/2019 01:00 5.76 6.1 18.90 0.00 55.0
08/06/2019 00:00 5.76 6.1 18.90 0.00 55.5
08/05/2019 23:00 5.76 6.1 18.91 0.00 56.4
08/05/2019 22:00 5.76 6.1 18.90 0.00 57.4
08/05/2019 21:00 5.76 6.1 18.91 0.00 58.6
08/05/2019 20:00 5.76 6.1 18.91 0.00 59.0
08/05/2019 19:00 5.77 6.4 18.91 0.00 61.7
08/05/2019 18:00 -- -- -- -- --
08/05/2019 17:00 -- -- -- -- --